University Oxford Airport
KUOX : now visible

Airfield :











YOU CAN JOIN US ON...

 
LOGIN :

Register | Disclaimer

   EN    FR    IT 

 









Legend :    VFR   Marginal VFR   IFR   Intensive IFR   Very Intensive IFR
Visi :
Ceiling :
>= 8 km
>= 3000ft
5 to 8 km
1000 to 3000 ft
1500m to 5 km
500 to 1000 ft
800 to 1500m
200 to 500 ft
< 800m
< 200 ft
Symbols :   Thunderstorms  Fog  Heavy snow  Heavy precipitations  Wind > 20 kt






- Airport Elevation : 452 ft


KUOX - University Oxford

CURRENT METAR :
  • 241155Z AUTO 14010G16KT 10SM BKN040 OVC050 07/07 A2989 RMK AO2

EXPIRED METARs :
  • 241135Z AUTO 14008G14KT 10SM OVC050 07/06 A2990 RMK AO2
  • 241115Z AUTO 14010G17KT 8SM OVC050 07/06 A2990 RMK AO2
  • 241055Z AUTO 14010KT 8SM -DZ OVC048 07/06 A2991 RMK AO2
  • 241035Z AUTO 14009KT 9SM -DZ SCT039 OVC046 07/06 A2992 RMK AO2
  • 241015Z AUTO 15008G15KT 8SM FEW030 OVC037 07/06 A2993 RMK AO2
  • 240955Z AUTO 15010KT 10SM BKN030 OVC036 07/06 A2994 RMK AO2
  • 240935Z AUTO 15010G17KT 130V190 9SM OVC034 07/06 A2994 RMK AO2
  • 240915Z AUTO 15007KT 110V170 10SM OVC033 07/06 A2996 RMK AO2

TAF N/A



MET'MAP, your aeronautical weather chart ! - Copyright ORBIFLY December 2007 - Disclaimer

ORBIFLY MET'MAP TEAM :

Programming & Development : Alexandra Zaïnal
Concept & original design : Baudouin d'Aumeries
Assistance for programming : Marc-Olivier Méhu
Technical & hardware support : Manuel Goepfert

Contact : metmap@orbifly.com




SOURCES & CREDITS :

   NOAA       Earth
Advisory